Terminal Aerodrome Forecast
Issued by NWS Quad Cities IA IL

Home | Current Version | Previous Version | Text Only | Print | Product List | Glossary On
Versions: 1 2 3 4 5 6 7 8 9 10 11 12 13 14 15 16 17 18 19 20 21 22 23 24
000
FTUS43 KDVN 261600 AAB
TAFDBQ
TAF AMD
KDBQ 261609Z 2616/2712 10009KT 5SM BR SCT005 BKN070
      TEMPO 2616/2618 2SM BR OVC005
     FM262100 04007KT 5SM -SN BR OVC025
     FM270100 34008KT 3SM -SN BR OVC010
     FM270500 33012KT P6SM OVC012=

USA.gov is the U.S. government's official web portal to all federal, state and local government web resources and services.